Time;durP1;ratioP1;P1;durP2;ratioP2;P2;SDS_P1;SDS_P2;PMS_P1;PMS_P2;Temp;Humidity;BMP_temperature;BMP_pressure;BME280_temperature;BME280_humidity;BME280_pressure;Samples;Min_cycle;Max_cycle;Signal;HPM_P1;HPM_P2
2022/01/08 00:00:14;;;;;;;;;;;19.60;54.10;;;;;;5043779;28;43123;-75
2022/01/08 00:02:41;;;;;;;;;;;19.60;54.20;;;;;;5044460;28;42949;-76
2022/01/08 00:05:07;;;;;;;;;;;19.60;54.20;;;;;;5043712;28;42812;-76
2022/01/08 00:07:33;;;;;;;;;;;19.60;54.20;;;;;;5043838;28;42948;-75
2022/01/08 00:09:58;;;;;;;;;;;19.60;54.20;;;;;;5044133;28;44095;-75
2022/01/08 00:12:24;;;;;;;;;;;19.60;54.20;;;;;;5042147;28;43080;-77
2022/01/08 00:14:50;;;;;;;;;;;19.60;54.30;;;;;;5042568;28;43224;-76
2022/01/08 00:17:15;;;;;;;;;;;19.60;54.20;;;;;;5043677;28;43179;-76
2022/01/08 00:19:41;;;;;;;;;;;19.60;54.30;;;;;;5043771;28;43573;-79
2022/01/08 00:22:06;;;;;;;;;;;19.60;54.30;;;;;;5044577;28;42833;-76
2022/01/08 00:24:32;;;;;;;;;;;19.60;54.30;;;;;;5043533;28;44568;-76
2022/01/08 00:26:57;;;;;;;;;;;19.60;54.30;;;;;;5043412;28;42923;-75
2022/01/08 00:29:23;;;;;;;;;;;19.60;54.30;;;;;;5042064;28;43574;-76
2022/01/08 00:31:48;;;;;;;;;;;19.60;54.30;;;;;;5044809;28;42917;-75
2022/01/08 00:34:14;;;;;;;;;;;19.60;54.40;;;;;;5046617;28;43743;-74
2022/01/08 00:36:40;;;;;;;;;;;19.50;54.30;;;;;;5047024;28;43114;-75
2022/01/08 00:39:06;;;;;;;;;;;19.50;54.30;;;;;;5046032;28;42980;-75
2022/01/08 00:41:31;;;;;;;;;;;19.50;54.30;;;;;;5046816;28;43150;-75
2022/01/08 00:43:57;;;;;;;;;;;19.50;54.20;;;;;;5046497;28;43160;-74
2022/01/08 00:46:22;;;;;;;;;;;19.50;54.20;;;;;;5045783;28;43009;-74
2022/01/08 00:48:48;;;;;;;;;;;19.50;54.20;;;;;;5046832;28;43381;-75
2022/01/08 00:51:13;;;;;;;;;;;19.50;54.10;;;;;;5046259;28;42992;-75
2022/01/08 00:53:39;;;;;;;;;;;19.50;54.20;;;;;;5045956;28;43040;-74
2022/01/08 00:56:05;;;;;;;;;;;19.50;54.20;;;;;;5046110;28;42973;-76
2022/01/08 00:58:31;;;;;;;;;;;19.50;54.20;;;;;;5045673;28;43610;-75
2022/01/08 01:00:56;;;;;;;;;;;19.50;54.20;;;;;;5045672;28;43059;-74
2022/01/08 01:03:22;;;;;;;;;;;19.50;54.10;;;;;;5044958;28;42999;-74
2022/01/08 01:05:47;;;;;;;;;;;19.50;54.30;;;;;;5045628;28;42885;-75
2022/01/08 01:08:13;;;;;;;;;;;19.50;54.30;;;;;;5045683;28;43075;-76
2022/01/08 01:10:39;;;;;;;;;;;19.00;53.90;;;;;;5046380;28;42888;-79
2022/01/08 01:13:05;;;;;;;;;;;19.50;54.20;;;;;;5046105;28;42916;-75
2022/01/08 01:15:30;;;;;;;;;;;19.50;54.30;;;;;;5046185;28;42866;-74
2022/01/08 01:17:56;;;;;;;;;;;19.50;54.20;;;;;;5045005;28;42989;-76
2022/01/08 01:20:22;;;;;;;;;;;19.50;54.20;;;;;;5045602;28;43000;-75
2022/01/08 01:25:32;;;;;;;;;;;19.50;54.10;;;;;;5045864;28;42986;-75
2022/01/08 01:30:58;;;;;;;;;;;19.50;54.30;;;;;;5025526;28;43053;-78
2022/01/08 01:41:49;;;;;;;;;;;19.50;54.10;;;;;;5045489;28;42994;-77
2022/01/08 01:47:00;;;;;;;;;;;19.50;54.20;;;;;;5044752;28;43091;-75
2022/01/08 01:49:26;;;;;;;;;;;19.50;54.30;;;;;;5044186;28;43641;-76
2022/01/08 01:51:52;;;;;;;;;;;19.50;54.40;;;;;;5043925;28;42944;-75
2022/01/08 01:54:17;;;;;;;;;;;19.50;54.60;;;;;;5044419;28;42965;-75
2022/01/08 01:56:43;;;;;;;;;;;19.50;55.10;;;;;;5026798;28;42893;-75
2022/01/08 01:59:08;;;;;;;;;;;19.50;55.20;;;;;;5045742;28;43543;-76
2022/01/08 02:01:34;;;;;;;;;;;19.50;54.50;;;;;;5044091;28;42933;-74
2022/01/08 02:03:59;;;;;;;;;;;19.50;54.60;;;;;;5045824;28;43074;-73
2022/01/08 02:06:25;;;;;;;;;;;19.50;55.20;;;;;;5026969;28;42951;-73
2022/01/08 02:08:50;;;;;;;;;;;19.50;54.80;;;;;;5043969;28;43170;-73
2022/01/08 02:11:19;;;;;;;;;;;19.50;55.40;;;;;;5044161;28;43020;-73
2022/01/08 02:13:45;;;;;;;;;;;19.50;55.40;;;;;;5045287;28;43975;-75
2022/01/08 02:16:16;;;;;;;;;;;19.50;55.50;;;;;;5045156;28;42803;-76
2022/01/08 02:18:45;;;;;;;;;;;19.50;55.50;;;;;;5045757;28;42929;-76
2022/01/08 02:21:12;;;;;;;;;;;19.40;55.50;;;;;;5045382;28;42954;-76
2022/01/08 02:23:38;;;;;;;;;;;19.50;55.70;;;;;;5044300;28;44259;-75
2022/01/08 02:26:04;;;;;;;;;;;19.40;55.90;;;;;;5045328;28;43000;-75
2022/01/08 02:28:30;;;;;;;;;;;19.40;55.90;;;;;;5045191;28;42945;-76
2022/01/08 02:30:55;;;;;;;;;;;19.40;56.00;;;;;;5044292;28;42909;-74
2022/01/08 02:33:30;;;;;;;;;;;19.40;56.10;;;;;;5044599;28;43513;-74
2022/01/08 02:35:56;;;;;;;;;;;19.40;56.10;;;;;;5042975;28;43054;-75
2022/01/08 02:38:22;;;;;;;;;;;19.40;55.90;;;;;;5042988;28;43127;-74
2022/01/08 02:40:58;;;;;;;;;;;19.40;56.20;;;;;;5030398;28;43729;-76
2022/01/08 02:43:24;;;;;;;;;;;19.40;56.30;;;;;;5041145;28;43589;-79
2022/01/08 02:45:49;;;;;;;;;;;19.40;56.20;;;;;;5042187;28;43065;-75
2022/01/08 02:48:15;;;;;;;;;;;19.40;56.30;;;;;;5038921;28;43319;-76
2022/01/08 02:50:41;;;;;;;;;;;19.40;56.40;;;;;;5041061;28;43402;-77
2022/01/08 02:53:06;;;;;;;;;;;19.40;56.50;;;;;;5042987;28;43942;-75
2022/01/08 02:55:32;;;;;;;;;;;19.40;56.40;;;;;;5042624;28;43027;-75
2022/01/08 02:57:57;;;;;;;;;;;19.40;56.60;;;;;;5030789;28;43264;-77
2022/01/08 03:00:23;;;;;;;;;;;19.40;56.70;;;;;;5034625;28;43118;-74
2022/01/08 03:02:50;;;;;;;;;;;19.40;56.70;;;;;;5039529;28;43423;-74
2022/01/08 03:05:16;;;;;;;;;;;19.40;56.70;;;;;;5034039;28;43399;-75
2022/01/08 03:07:42;;;;;;;;;;;19.40;56.80;;;;;;5035693;28;43501;-74
2022/01/08 03:10:10;;;;;;;;;;;19.40;56.80;;;;;;5029170;28;44096;-75
2022/01/08 03:12:40;;;;;;;;;;;19.40;56.80;;;;;;5040340;28;43012;-75
2022/01/08 03:15:07;;;;;;;;;;;19.40;56.80;;;;;;5041631;28;42920;-75
2022/01/08 03:17:32;;;;;;;;;;;19.40;56.70;;;;;;5041667;28;43158;-75
2022/01/08 03:20:04;;;;;;;;;;;19.40;56.70;;;;;;5043848;28;43042;-74
2022/01/08 03:22:30;;;;;;;;;;;19.40;56.70;;;;;;5031451;28;43299;-74
2022/01/08 03:24:55;;;;;;;;;;;19.40;56.70;;;;;;5037588;28;43210;-74
2022/01/08 03:27:21;;;;;;;;;;;19.40;56.70;;;;;;5032809;28;43178;-74
2022/01/08 03:29:46;;;;;;;;;;;19.40;56.60;;;;;;5029805;28;42806;-74
2022/01/08 03:32:12;;;;;;;;;;;19.40;56.70;;;;;;5039202;28;44493;-74
2022/01/08 03:34:38;;;;;;;;;;;19.40;56.70;;;;;;5038167;28;43120;-74
2022/01/08 03:37:04;;;;;;;;;;;19.30;56.60;;;;;;5040480;28;43635;-74
2022/01/08 03:39:29;;;;;;;;;;;19.40;56.80;;;;;;5039042;28;43036;-73
2022/01/08 03:41:55;;;;;;;;;;;19.30;56.80;;;;;;5042542;28;43743;-74
2022/01/08 03:44:20;;;;;;;;;;;19.30;56.70;;;;;;5042735;28;42896;-74
2022/01/08 03:46:46;;;;;;;;;;;19.30;56.70;;;;;;5043470;28;43735;-74
2022/01/08 03:51:37;;;;;;;;;;;19.30;56.70;;;;;;5042438;28;42948;-73
2022/01/08 03:54:03;;;;;;;;;;;19.30;56.60;;;;;;5024145;28;43155;-74
2022/01/08 03:56:28;;;;;;;;;;;19.30;56.70;;;;;;5042448;28;43615;-78
2022/01/08 03:58:54;;;;;;;;;;;19.30;56.70;;;;;;5042007;28;42890;-74
2022/01/08 04:01:19;;;;;;;;;;;19.30;56.60;;;;;;5042952;28;43011;-75
2022/01/08 04:03:45;;;;;;;;;;;19.30;56.60;;;;;;5043326;28;43009;-75
2022/01/08 04:06:10;;;;;;;;;;;19.30;56.60;;;;;;5041632;28;43613;-73
2022/01/08 04:08:36;;;;;;;;;;;19.30;56.50;;;;;;5045220;28;42996;-75
2022/01/08 04:11:02;;;;;;;;;;;19.20;56.40;;;;;;5044631;28;42944;-74
2022/01/08 04:13:31;;;;;;;;;;;19.30;56.50;;;;;;5045302;28;42948;-77
2022/01/08 04:16:06;;;;;;;;;;;19.20;56.40;;;;;;5027847;28;44118;-73
2022/01/08 04:18:31;;;;;;;;;;;19.30;56.40;;;;;;5047306;28;43614;-74
2022/01/08 04:21:20;;;;;;;;;;;19.20;56.40;;;;;;5047282;28;43016;-74
2022/01/08 04:23:42;;;;;;;;;;;19.30;56.60;;;;;;5046678;28;43019;-75
2022/01/08 04:26:08;;;;;;;;;;;19.30;56.50;;;;;;5046318;28;43788;-75
2022/01/08 04:28:33;;;;;;;;;;;19.20;56.60;;;;;;5047694;28;42845;-75
2022/01/08 04:30:59;;;;;;;;;;;19.20;56.70;;;;;;5046844;28;43092;-73
2022/01/08 04:33:24;;;;;;;;;;;19.20;56.60;;;;;;5047096;28;42996;-75
2022/01/08 04:35:50;;;;;;;;;;;19.20;56.60;;;;;;5047189;28;42955;-76
2022/01/08 04:38:16;;;;;;;;;;;19.20;56.60;;;;;;5047462;28;42934;-76
2022/01/08 04:40:41;;;;;;;;;;;18.40;56.30;;;;;;5047265;28;43572;-74
2022/01/08 04:43:07;;;;;;;;;;;19.20;56.90;;;;;;5047479;28;42972;-74
2022/01/08 04:45:32;;;;;;;;;;;19.20;56.50;;;;;;5045734;28;43527;-74
2022/01/08 04:47:59;;;;;;;;;;;19.20;56.50;;;;;;5028458;28;43099;-75
2022/01/08 04:50:25;;;;;;;;;;;19.20;56.30;;;;;;5046991;28;43109;-77
2022/01/08 04:52:50;;;;;;;;;;;19.20;56.30;;;;;;5046276;28;43000;-75
2022/01/08 04:55:16;;;;;;;;;;;19.20;56.40;;;;;;5045634;28;43092;-76
2022/01/08 04:57:41;;;;;;;;;;;19.20;56.50;;;;;;5046961;28;42901;-76
2022/01/08 05:00:07;;;;;;;;;;;19.20;56.30;;;;;;5045278;28;42983;-73
2022/01/08 05:02:33;;;;;;;;;;;19.20;56.40;;;;;;5046303;28;43054;-78
2022/01/08 05:04:58;;;;;;;;;;;19.20;56.40;;;;;;5045815;28;43668;-77
2022/01/08 05:07:24;;;;;;;;;;;19.20;56.60;;;;;;5045860;28;43035;-76
2022/01/08 05:09:49;;;;;;;;;;;19.20;56.50;;;;;;5045591;28;43065;-77
2022/01/08 05:12:15;;;;;;;;;;;19.20;56.60;;;;;;5045776;28;43052;-76
2022/01/08 05:14:43;;;;;;;;;;;18.30;56.40;;;;;;5026706;28;44079;-79
2022/01/08 05:17:08;;;;;;;;;;;19.10;56.50;;;;;;5044826;28;42986;-77
2022/01/08 05:19:52;;;;;;;;;;;19.10;56.50;;;;;;5044796;28;43018;-78
2022/01/08 05:22:23;;;;;;;;;;;19.10;56.40;;;;;;5047156;28;42973;-75
2022/01/08 05:24:49;;;;;;;;;;;19.10;56.30;;;;;;5046511;28;42954;-75
2022/01/08 05:27:17;;;;;;;;;;;19.10;56.40;;;;;;5046442;28;42943;-76
2022/01/08 05:29:46;;;;;;;;;;;19.10;56.30;;;;;;5046374;28;42988;-75
2022/01/08 05:32:16;;;;;;;;;;;19.10;56.30;;;;;;5046052;28;42854;-76
2022/01/08 05:34:45;;;;;;;;;;;19.10;56.30;;;;;;5045119;28;43774;-76
2022/01/08 05:37:11;;;;;;;;;;;19.10;56.20;;;;;;5046615;28;43018;-75
2022/01/08 05:39:37;;;;;;;;;;;19.10;56.30;;;;;;5046939;28;43036;-79
2022/01/08 05:42:03;;;;;;;;;;;19.10;56.20;;;;;;5045469;28;42971;-77
2022/01/08 05:44:28;;;;;;;;;;;19.10;56.20;;;;;;5045855;28;43539;-75
2022/01/08 05:46:54;;;;;;;;;;;18.90;56.30;;;;;;5045610;28;42976;-78
2022/01/08 05:49:19;;;;;;;;;;;19.10;56.40;;;;;;5046341;28;43011;-76
2022/01/08 05:51:45;;;;;;;;;;;19.10;56.50;;;;;;5044605;28;43038;-75
2022/01/08 05:54:10;;;;;;;;;;;19.10;56.30;;;;;;5045631;28;43508;-76
2022/01/08 05:56:36;;;;;;;;;;;19.00;56.20;;;;;;5046613;28;43017;-78
2022/01/08 05:59:01;;;;;;;;;;;19.10;56.80;;;;;;5045624;28;42859;-76
2022/01/08 06:01:27;;;;;;;;;;;19.00;56.30;;;;;;5045764;28;42921;-76
2022/01/08 06:03:53;;;;;;;;;;;19.10;56.50;;;;;;5045975;28;46011;-77
2022/01/08 06:06:18;;;;;;;;;;;19.10;56.70;;;;;;5045596;28;43242;-75
2022/01/08 06:08:44;;;;;;;;;;;19.00;57.30;;;;;;5044748;28;42914;-76
2022/01/08 06:11:09;;;;;;;;;;;19.00;56.90;;;;;;5027480;28;43077;-76
2022/01/08 06:13:35;;;;;;;;;;;19.00;56.80;;;;;;5046211;28;43758;-76
2022/01/08 06:16:00;;;;;;;;;;;19.00;56.80;;;;;;5046388;28;42945;-74
2022/01/08 06:18:26;;;;;;;;;;;19.00;56.80;;;;;;5045878;28;42949;-75
2022/01/08 06:20:51;;;;;;;;;;;19.00;56.80;;;;;;5042389;28;43061;-76
2022/01/08 06:23:17;;;;;;;;;;;19.00;56.80;;;;;;5027782;28;43317;-76
2022/01/08 06:25:43;;;;;;;;;;;19.00;56.80;;;;;;5022621;28;43131;-77
2022/01/08 06:28:09;;;;;;;;;;;19.00;56.70;;;;;;5043215;28;43678;-76
2022/01/08 06:30:35;;;;;;;;;;;19.00;56.70;;;;;;5043974;28;42902;-76
2022/01/08 06:33:01;;;;;;;;;;;19.00;56.70;;;;;;5044989;28;43383;-76
2022/01/08 06:35:26;;;;;;;;;;;19.00;56.70;;;;;;5045500;28;42882;-77
2022/01/08 06:37:52;;;;;;;;;;;19.00;56.70;;;;;;5045606;28;43529;-76
2022/01/08 06:40:17;;;;;;;;;;;19.00;56.70;;;;;;5045779;28;42996;-76
2022/01/08 06:42:43;;;;;;;;;;;18.90;56.60;;;;;;5044926;28;42948;-76
2022/01/08 06:45:09;;;;;;;;;;;18.90;56.60;;;;;;5025304;28;43000;-75
2022/01/08 06:47:34;;;;;;;;;;;19.00;56.70;;;;;;5045043;28;43041;-76
2022/01/08 06:50:00;;;;;;;;;;;18.90;57.50;;;;;;5026003;28;42953;-75
2022/01/08 06:52:26;;;;;;;;;;;18.90;56.70;;;;;;5035725;28;43499;-76
2022/01/08 06:54:51;;;;;;;;;;;18.90;56.70;;;;;;5011988;28;43241;-75
2022/01/08 06:57:17;;;;;;;;;;;18.90;56.90;;;;;;5025086;28;44201;-75
2022/01/08 06:59:42;;;;;;;;;;;18.90;56.60;;;;;;5042515;28;43197;-77
2022/01/08 07:02:08;;;;;;;;;;;18.90;56.80;;;;;;5024967;28;44144;-79
2022/01/08 07:04:33;;;;;;;;;;;19.00;57.00;;;;;;5026135;28;43106;-76
2022/01/08 07:06:59;;;;;;;;;;;18.90;56.50;;;;;;5043770;28;44498;-75
2022/01/08 07:09:25;;;;;;;;;;;18.90;56.90;;;;;;5038450;28;43155;-75
2022/01/08 07:11:50;;;;;;;;;;;18.90;56.50;;;;;;5027894;28;43041;-73
2022/01/08 07:14:16;;;;;;;;;;;18.90;56.50;;;;;;5037363;28;43003;-75
2022/01/08 07:16:42;;;;;;;;;;;19.70;57.40;;;;;;5043042;28;43068;-74
2022/01/08 07:19:08;;;;;;;;;;;18.90;56.60;;;;;;5041160;28;42975;-74
2022/01/08 07:21:33;;;;;;;;;;;18.90;56.60;;;;;;5041332;28;42879;-74
2022/01/08 07:23:59;;;;;;;;;;;18.90;56.50;;;;;;5038657;28;42925;-75
2022/01/08 07:26:25;;;;;;;;;;;18.90;56.50;;;;;;5029991;28;42904;-74
2022/01/08 07:28:50;;;;;;;;;;;18.90;56.60;;;;;;5026297;28;43023;-75
2022/01/08 07:31:16;;;;;;;;;;;18.90;56.60;;;;;;5034987;28;42963;-73
2022/01/08 07:33:41;;;;;;;;;;;18.90;56.60;;;;;;5041698;28;42966;-76
2022/01/08 07:36:07;;;;;;;;;;;18.90;56.90;;;;;;5025502;28;43056;-75
2022/01/08 07:38:32;;;;;;;;;;;18.90;56.70;;;;;;5025935;28;42941;-73
2022/01/08 07:40:58;;;;;;;;;;;18.90;56.90;;;;;;5031881;28;43611;-77
2022/01/08 07:43:23;;;;;;;;;;;18.90;57.00;;;;;;5025982;28;43111;-74
2022/01/08 07:45:49;;;;;;;;;;;18.90;56.80;;;;;;5022751;28;43610;-75
2022/01/08 07:48:14;;;;;;;;;;;18.90;56.60;;;;;;5041207;28;42931;-73
2022/01/08 07:50:40;;;;;;;;;;;18.90;56.50;;;;;;5032705;28;43442;-74
2022/01/08 07:53:05;;;;;;;;;;;18.90;56.50;;;;;;5042015;28;42984;-74
2022/01/08 07:55:31;;;;;;;;;;;18.90;56.50;;;;;;5043975;28;43896;-76
2022/01/08 07:57:56;;;;;;;;;;;18.90;56.50;;;;;;5031858;28;43002;-75
2022/01/08 08:00:22;;;;;;;;;;;18.80;56.20;;;;;;5028716;28;42995;-75
2022/01/08 08:02:47;;;;;;;;;;;18.90;56.50;;;;;;5031060;28;42877;-75
2022/01/08 08:05:50;;;;;;;;;;;18.90;56.30;;;;;;5058290;22;43509;-76
2022/01/08 08:08:16;;;;;;;;;;;18.80;56.10;;;;;;5043590;28;43060;-76
2022/01/08 08:10:42;;;;;;;;;;;18.80;55.50;;;;;;5043434;28;42959;-75
2022/01/08 08:13:08;;;;;;;;;;;18.80;56.30;;;;;;5034595;28;43005;-77
2022/01/08 08:15:34;;;;;;;;;;;18.80;56.00;;;;;;5042224;28;43874;-84
2022/01/08 08:17:59;;;;;;;;;;;18.80;54.70;;;;;;5036379;28;43019;-75
2022/01/08 08:20:25;;;;;;;;;;;18.80;54.80;;;;;;5041607;28;42893;-76
2022/01/08 08:22:50;;;;;;;;;;;18.80;55.00;;;;;;5030485;28;42989;-74
2022/01/08 08:25:16;;;;;;;;;;;18.80;51.90;;;;;;5022014;28;42989;-76
2022/01/08 08:27:43;;;;;;;;;;;18.80;54.50;;;;;;5022033;28;43123;-77
2022/01/08 08:30:09;;;;;;;;;;;18.80;53.20;;;;;;5024200;28;43724;-77
2022/01/08 08:32:35;;;;;;;;;;;18.80;51.20;;;;;;5026611;28;42979;-77
2022/01/08 08:35:01;;;;;;;;;;;18.80;53.30;;;;;;5022369;28;43184;-75
2022/01/08 08:37:26;;;;;;;;;;;18.80;53.50;;;;;;5022292;28;43068;-75
2022/01/08 08:39:52;;;;;;;;;;;18.80;50.40;;;;;;5023042;28;43259;-75
2022/01/08 08:42:17;;;;;;;;;;;18.80;52.70;;;;;;5019954;28;43043;-76
2022/01/08 08:44:43;;;;;;;;;;;18.70;54.90;;;;;;5001337;28;43173;-74
2022/01/08 08:47:08;;;;;;;;;;;18.20;30.20;;;;;;5022605;28;42941;-77
2022/01/08 08:49:34;;;;;;;;;;;17.90;31.50;;;;;;5022299;28;44002;-73
2022/01/08 08:52:00;;;;;;;;;;;17.90;34.60;;;;;;5028537;28;42973;-76
2022/01/08 08:54:26;;;;;;;;;;;18.00;38.20;;;;;;5039866;28;43003;-75
2022/01/08 08:56:51;;;;;;;;;;;17.70;33.60;;;;;;5027458;28;43180;-75
2022/01/08 08:59:17;;;;;;;;;;;17.10;31.80;;;;;;5023213;28;43681;-72
2022/01/08 09:01:42;;;;;;;;;;;16.90;30.90;;;;;;5027407;28;43071;-74
2022/01/08 09:04:08;;;;;;;;;;;16.40;30.40;;;;;;5024659;28;43260;-79
2022/01/08 09:06:34;;;;;;;;;;;15.70;31.00;;;;;;5030191;28;42973;-78
2022/01/08 09:08:59;;;;;;;;;;;15.10;34.10;;;;;;5038198;28;43319;-74
2022/01/08 09:11:25;;;;;;;;;;;14.80;31.00;;;;;;5029145;28;43086;-72
2022/01/08 09:13:50;;;;;;;;;;;14.70;30.70;;;;;;5028184;28;43043;-72
2022/01/08 09:16:16;;;;;;;;;;;14.70;30.90;;;;;;5028165;28;43019;-79
2022/01/08 09:18:42;;;;;;;;;;;14.60;30.60;;;;;;5024569;28;42980;-81
2022/01/08 09:21:08;;;;;;;;;;;14.50;30.50;;;;;;5029772;28;42924;-73
2022/01/08 09:23:33;;;;;;;;;;;14.60;30.70;;;;;;5044138;28;43785;-72
2022/01/08 09:26:00;;;;;;;;;;;14.80;30.10;;;;;;5032996;28;43037;-72
2022/01/08 09:28:26;;;;;;;;;;;14.80;30.30;;;;;;5038960;28;43784;-75
2022/01/08 09:30:51;;;;;;;;;;;15.20;30.80;;;;;;5036931;28;43146;-74
2022/01/08 09:33:17;;;;;;;;;;;15.90;31.50;;;;;;5033094;28;43745;-76
2022/01/08 09:35:43;;;;;;;;;;;16.50;32.20;;;;;;5044545;28;42983;-75
2022/01/08 09:38:08;;;;;;;;;;;16.80;32.60;;;;;;5027120;28;43003;-73
2022/01/08 09:40:34;;;;;;;;;;;17.00;33.50;;;;;;5031781;28;42910;-72
2022/01/08 09:43:00;;;;;;;;;;;17.20;34.50;;;;;;5043763;28;43074;-72
2022/01/08 09:45:25;;;;;;;;;;;17.30;35.10;;;;;;5041617;28;43509;-73
2022/01/08 09:47:52;;;;;;;;;;;17.40;35.80;;;;;;5027338;28;42955;-72
2022/01/08 09:50:18;;;;;;;;;;;17.50;36.40;;;;;;5026358;28;43016;-72
2022/01/08 09:52:43;;;;;;;;;;;17.50;36.90;;;;;;5045077;28;43573;-72
2022/01/08 09:55:09;;;;;;;;;;;17.60;37.30;;;;;;5042646;28;42941;-73
2022/01/08 09:57:35;;;;;;;;;;;17.60;37.70;;;;;;5037832;28;43003;-72
2022/01/08 10:00:01;;;;;;;;;;;17.70;38.20;;;;;;5044469;28;42814;-75
2022/01/08 10:02:26;;;;;;;;;;;17.70;38.60;;;;;;5044100;28;42988;-74
2022/01/08 10:04:52;;;;;;;;;;;17.70;39.30;;;;;;5042219;28;44419;-72
2022/01/08 10:07:19;;;;;;;;;;;17.80;39.10;;;;;;5044043;28;43486;-72
2022/01/08 10:10:03;;;;;;;;;;;17.80;39.80;;;;;;5044774;28;43253;-75
2022/01/08 10:12:35;;;;;;;;;;;17.80;39.90;;;;;;5045171;28;43220;-75
2022/01/08 10:17:46;;;;;;;;;;;17.90;40.40;;;;;;5035715;28;43296;-75
2022/01/08 10:20:11;;;;;;;;;;;17.90;41.20;;;;;;5038759;28;42924;-76
2022/01/08 10:22:37;;;;;;;;;;;18.00;41.70;;;;;;5042893;28;43055;-73
2022/01/08 10:25:10;;;;;;;;;;;18.00;42.10;;;;;;5027081;28;43107;-72
2022/01/08 10:27:35;;;;;;;;;;;18.10;42.50;;;;;;5043227;28;43552;-72
2022/01/08 10:30:01;;;;;;;;;;;18.10;42.60;;;;;;5041242;28;43014;-72
2022/01/08 10:32:27;;;;;;;;;;;18.10;42.90;;;;;;5042437;28;43065;-73
2022/01/08 10:34:52;;;;;;;;;;;18.10;42.80;;;;;;5043437;28;43117;-73
2022/01/08 10:37:18;;;;;;;;;;;18.10;43.30;;;;;;5042874;28;43079;-75
2022/01/08 10:39:52;;;;;;;;;;;18.10;43.20;;;;;;5043402;28;42984;-73
2022/01/08 10:42:18;;;;;;;;;;;18.10;43.50;;;;;;5042489;28;43761;-74
2022/01/08 10:44:46;;;;;;;;;;;18.10;43.40;;;;;;5043425;28;43000;-73
2022/01/08 10:47:16;;;;;;;;;;;18.20;43.60;;;;;;5043197;28;43176;-74
2022/01/08 10:49:41;;;;;;;;;;;18.20;44.10;;;;;;5025637;28;43182;-75
2022/01/08 10:52:08;;;;;;;;;;;18.20;43.30;;;;;;5025242;28;44611;-75
2022/01/08 10:54:34;;;;;;;;;;;18.20;43.80;;;;;;5041727;28;43151;-74
2022/01/08 10:57:02;;;;;;;;;;;18.20;43.70;;;;;;5042552;28;43441;-74
2022/01/08 10:59:28;;;;;;;;;;;18.10;38.80;;;;;;5042324;28;43142;-73
2022/01/08 11:01:59;;;;;;;;;;;18.00;39.50;;;;;;5042709;28;43003;-74
2022/01/08 11:04:36;;;;;;;;;;;18.10;39.50;;;;;;5041865;28;43027;-74
2022/01/08 11:07:02;;;;;;;;;;;18.00;38.40;;;;;;5040858;28;43674;-74
2022/01/08 11:09:28;;;;;;;;;;;18.00;39.50;;;;;;5034258;28;43117;-76
2022/01/08 11:11:54;;;;;;;;;;;18.00;39.10;;;;;;5042085;28;42955;-75
2022/01/08 11:14:44;;;;;;;;;;;17.90;38.50;;;;;;5043376;28;42972;-74
2022/01/08 11:17:08;;;;;;;;;;;18.00;38.30;;;;;;5040198;28;43055;-74
2022/01/08 11:19:34;;;;;;;;;;;18.10;41.30;;;;;;5023992;28;43094;-76
2022/01/08 11:22:00;;;;;;;;;;;18.10;40.80;;;;;;5041995;28;43801;-76
2022/01/08 11:24:26;;;;;;;;;;;18.20;41.80;;;;;;5041389;28;43226;-76
2022/01/08 11:26:52;;;;;;;;;;;18.20;41.90;;;;;;5041745;28;42964;-75
2022/01/08 11:29:21;;;;;;;;;;;18.20;42.90;;;;;;5040750;28;42964;-77
2022/01/08 11:31:49;;;;;;;;;;;18.20;43.60;;;;;;5033001;28;44070;-75
2022/01/08 11:34:14;;;;;;;;;;;18.30;43.50;;;;;;5032724;28;42979;-74
2022/01/08 11:36:41;;;;;;;;;;;18.30;43.80;;;;;;5031582;28;44505;-74
2022/01/08 11:39:09;;;;;;;;;;;18.30;42.30;;;;;;5037825;28;43325;-73
2022/01/08 11:41:35;;;;;;;;;;;18.30;40.30;;;;;;5040414;28;43689;-73
2022/01/08 11:44:04;;;;;;;;;;;18.20;41.70;;;;;;5016948;28;43834;-72
2022/01/08 11:46:34;;;;;;;;;;;17.90;35.60;;;;;;5033540;28;43186;-73
2022/01/08 11:49:01;;;;;;;;;;;17.70;35.30;;;;;;5037978;28;42995;-79
2022/01/08 11:51:29;;;;;;;;;;;17.70;39.30;;;;;;5027578;28;43480;-79
2022/01/08 11:53:56;;;;;;;;;;;18.00;40.50;;;;;;5023723;28;43178;-78
2022/01/08 11:56:27;;;;;;;;;;;18.20;42.30;;;;;;5029721;28;43114;-74
2022/01/08 11:59:05;;;;;;;;;;;18.30;42.90;;;;;;5019531;28;43097;-73
2022/01/08 12:01:31;;;;;;;;;;;18.30;43.10;;;;;;5024743;28;43627;-75
2022/01/08 12:03:56;;;;;;;;;;;18.40;44.30;;;;;;5024420;28;43102;-73
2022/01/08 12:06:22;;;;;;;;;;;18.40;43.90;;;;;;5022210;28;43530;-72
2022/01/08 12:08:51;;;;;;;;;;;18.30;42.80;;;;;;5033133;28;43026;-73
2022/01/08 12:11:17;;;;;;;;;;;18.30;42.90;;;;;;5032013;28;43159;-72
2022/01/08 12:13:44;;;;;;;;;;;18.30;44.10;;;;;;5026238;28;43027;-72
2022/01/08 12:16:28;;;;;;;;;;;18.30;44.50;;;;;;5021604;28;44685;-73
2022/01/08 12:18:54;;;;;;;;;;;18.30;44.70;;;;;;5031903;28;42983;-73
2022/01/08 12:21:32;;;;;;;;;;;18.30;45.00;;;;;;5023607;28;42920;-72
2022/01/08 12:24:00;;;;;;;;;;;18.30;45.00;;;;;;5021802;28;43084;-73
2022/01/08 12:26:25;;;;;;;;;;;18.30;45.00;;;;;;5030472;28;44780;-74
2022/01/08 12:28:57;;;;;;;;;;;18.40;45.20;;;;;;5044820;28;42968;-73
2022/01/08 12:31:30;;;;;;;;;;;18.40;45.40;;;;;;5044946;28;43077;-73
2022/01/08 12:34:16;;;;;;;;;;;18.40;45.30;;;;;;5027161;28;42994;-72
2022/01/08 12:36:55;;;;;;;;;;;18.30;45.40;;;;;;5027309;28;44548;-72
2022/01/08 12:39:25;;;;;;;;;;;18.40;45.60;;;;;;5038750;28;43309;-73
2022/01/08 12:42:11;;;;;;;;;;;18.40;45.60;;;;;;5029928;28;43074;-72
2022/01/08 12:44:38;;;;;;;;;;;18.40;45.70;;;;;;5040365;28;42978;-72
2022/01/08 12:47:04;;;;;;;;;;;18.40;45.90;;;;;;5043289;28;43112;-72
2022/01/08 12:49:29;;;;;;;;;;;18.40;45.90;;;;;;5044335;28;43803;-72
2022/01/08 12:51:57;;;;;;;;;;;18.40;46.00;;;;;;5045198;28;44012;-72
2022/01/08 12:54:23;;;;;;;;;;;18.40;46.00;;;;;;5044370;28;43217;-72
2022/01/08 12:56:50;;;;;;;;;;;18.40;46.10;;;;;;5044679;28;43721;-73
2022/01/08 12:59:16;;;;;;;;;;;18.40;46.20;;;;;;5045589;28;43238;-72
2022/01/08 13:01:45;;;;;;;;;;;18.40;46.30;;;;;;5044565;28;43506;-72
2022/01/08 13:04:15;;;;;;;;;;;18.40;46.30;;;;;;5037843;28;43063;-72
2022/01/08 13:06:42;;;;;;;;;;;18.40;46.50;;;;;;5034363;28;43030;-72
2022/01/08 13:09:08;;;;;;;;;;;18.40;46.50;;;;;;5040321;28;43131;-72
2022/01/08 13:11:34;;;;;;;;;;;18.50;46.70;;;;;;5022920;28;44032;-73
2022/01/08 13:14:00;;;;;;;;;;;20.80;48.20;;;;;;5035800;28;43260;-72
2022/01/08 13:16:25;;;;;;;;;;;18.50;46.90;;;;;;5042789;28;43662;-72
2022/01/08 13:18:52;;;;;;;;;;;18.50;47.40;;;;;;5024629;28;43901;-73
2022/01/08 13:21:18;;;;;;;;;;;18.50;47.20;;;;;;5035951;28;43149;-73
2022/01/08 13:23:45;;;;;;;;;;;18.50;47.40;;;;;;5040563;28;43063;-73
2022/01/08 13:26:11;;;;;;;;;;;18.50;47.70;;;;;;5037391;28;43424;-73
2022/01/08 13:28:37;;;;;;;;;;;18.50;47.90;;;;;;5026845;28;43367;-73
2022/01/08 13:31:03;;;;;;;;;;;18.50;47.70;;;;;;5037372;28;43894;-74
2022/01/08 13:33:28;;;;;;;;;;;18.50;47.80;;;;;;5041451;28;43249;-74
2022/01/08 13:35:57;;;;;;;;;;;18.50;47.90;;;;;;5029983;28;43003;-74
2022/01/08 13:38:33;;;;;;;;;;;18.50;47.90;;;;;;5024749;28;42965;-75
2022/01/08 13:41:12;;;;;;;;;;;18.50;48.00;;;;;;5038421;28;42952;-75
2022/01/08 13:43:56;;;;;;;;;;;18.50;48.10;;;;;;5044691;28;43855;-72
2022/01/08 13:46:22;;;;;;;;;;;18.50;48.10;;;;;;5031261;28;44022;-73
2022/01/08 13:48:48;;;;;;;;;;;18.50;48.50;;;;;;5010960;28;43009;-72
2022/01/08 13:51:15;;;;;;;;;;;18.50;48.20;;;;;;5027957;28;43460;-74
2022/01/08 13:53:41;;;;;;;;;;;18.50;49.70;;;;;;5034766;28;43980;-75
2022/01/08 13:56:07;;;;;;;;;;;18.60;51.80;;;;;;5014802;28;44439;-72
2022/01/08 13:58:34;;;;;;;;;;;18.40;44.50;;;;;;5038307;28;43185;-74
2022/01/08 14:01:02;;;;;;;;;;;17.60;36.30;;;;;;5011597;28;44521;-73
2022/01/08 14:03:31;;;;;;;;;;;17.20;34.90;;;;;;5039415;28;43908;-73
2022/01/08 14:05:57;;;;;;;;;;;16.70;31.70;;;;;;5035205;28;43332;-73
2022/01/08 14:08:23;;;;;;;;;;;16.60;32.50;;;;;;5043388;28;43165;-72
2022/01/08 14:10:49;;;;;;;;;;;17.80;33.10;;;;;;5039699;28;43852;-78
2022/01/08 14:13:19;;;;;;;;;;;16.60;33.00;;;;;;5043884;28;42946;-74
2022/01/08 14:15:46;;;;;;;;;;;17.10;34.70;;;;;;5042735;28;43609;-74
2022/01/08 14:18:14;;;;;;;;;;;17.50;34.80;;;;;;5039671;28;43095;-76
2022/01/08 14:20:40;;;;;;;;;;;17.80;35.30;;;;;;5020789;28;42901;-73
2022/01/08 14:23:09;;;;;;;;;;;17.90;37.20;;;;;;5039089;28;43208;-73
2022/01/08 14:25:37;;;;;;;;;;;18.00;38.70;;;;;;5038290;28;43606;-74
2022/01/08 14:28:17;;;;;;;;;;;18.10;39.50;;;;;;5040805;28;43046;-73
2022/01/08 14:30:43;;;;;;;;;;;18.20;40.20;;;;;;5031964;28;43560;-74
2022/01/08 14:33:09;;;;;;;;;;;18.10;40.50;;;;;;5031636;28;43034;-73
2022/01/08 14:35:34;;;;;;;;;;;18.20;40.90;;;;;;5018381;28;43498;-74